sensor_id;sensor_type;location;lat;lon;timestamp;temperature;humidity
22895;DHT22;11614;52.494;6.976;2022-10-16T00:01:24;12.80;99.90
22895;DHT22;11614;52.494;6.976;2022-10-16T00:03:51;12.90;99.90
22895;DHT22;11614;52.494;6.976;2022-10-16T00:06:19;12.90;99.90
22895;DHT22;11614;52.494;6.976;2022-10-16T00:08:45;12.90;99.90
22895;DHT22;11614;52.494;6.976;2022-10-16T00:11:14;13.00;99.90
22895;DHT22;11614;52.494;6.976;2022-10-16T00:13:42;12.90;99.90
22895;DHT22;11614;52.494;6.976;2022-10-16T00:16:09;12.90;99.90
22895;DHT22;11614;52.494;6.976;2022-10-16T00:18:35;12.90;99.90
22895;DHT22;11614;52.494;6.976;2022-10-16T00:21:06;12.80;99.90
22895;DHT22;11614;52.494;6.976;2022-10-16T00:23:32;12.90;99.90
22895;DHT22;11614;52.494;6.976;2022-10-16T00:26:01;12.60;99.90
22895;DHT22;11614;52.494;6.976;2022-10-16T00:28:27;12.50;99.90
22895;DHT22;11614;52.494;6.976;2022-10-16T00:30:53;12.50;99.90
22895;DHT22;11614;52.494;6.976;2022-10-16T00:43:12;12.20;99.90
22895;DHT22;11614;52.494;6.976;2022-10-16T00:48:04;12.30;99.90
22895;DHT22;11614;52.494;6.976;2022-10-16T00:50:34;12.40;99.90
22895;DHT22;11614;52.494;6.976;2022-10-16T00:53:01;12.50;99.90
22895;DHT22;11614;52.494;6.976;2022-10-16T00:55:27;12.60;99.90
22895;DHT22;11614;52.494;6.976;2022-10-16T00:57:55;12.70;99.90
22895;DHT22;11614;52.494;6.976;2022-10-16T01:00:25;12.70;99.90
22895;DHT22;11614;52.494;6.976;2022-10-16T01:02:55;12.80;99.90
22895;DHT22;11614;52.494;6.976;2022-10-16T01:05:33;12.70;99.90
22895;DHT22;11614;52.494;6.976;2022-10-16T01:08:11;12.70;99.90
22895;DHT22;11614;52.494;6.976;2022-10-16T01:13:25;14.80;99.90
22895;DHT22;11614;52.494;6.976;2022-10-16T01:21:41;12.90;99.90
22895;DHT22;11614;52.494;6.976;2022-10-16T01:27:11;13.00;99.90
22895;DHT22;11614;52.494;6.976;2022-10-16T01:29:52;13.10;99.90
22895;DHT22;11614;52.494;6.976;2022-10-16T01:34:54;13.20;99.90
22895;DHT22;11614;52.494;6.976;2022-10-16T01:40:44;13.20;99.90
22895;DHT22;11614;52.494;6.976;2022-10-16T01:43:15;13.20;99.90
22895;DHT22;11614;52.494;6.976;2022-10-16T01:45:44;13.20;99.90
22895;DHT22;11614;52.494;6.976;2022-10-16T01:48:14;13.10;99.90
22895;DHT22;11614;52.494;6.976;2022-10-16T01:50:44;13.10;99.90
22895;DHT22;11614;52.494;6.976;2022-10-16T01:53:12;13.00;99.90
22895;DHT22;11614;52.494;6.976;2022-10-16T01:55:44;13.00;99.90
22895;DHT22;11614;52.494;6.976;2022-10-16T01:58:12;13.20;99.90
22895;DHT22;11614;52.494;6.976;2022-10-16T02:00:40;12.80;99.90
22895;DHT22;11614;52.494;6.976;2022-10-16T02:06:00;12.70;99.90
22895;DHT22;11614;52.494;6.976;2022-10-16T02:08:28;12.70;99.90
22895;DHT22;11614;52.494;6.976;2022-10-16T02:10:55;12.70;99.90
22895;DHT22;11614;52.494;6.976;2022-10-16T02:13:32;12.70;99.90
22895;DHT22;11614;52.494;6.976;2022-10-16T02:18:25;12.60;99.90
22895;DHT22;11614;52.494;6.976;2022-10-16T02:21:01;12.70;99.90
22895;DHT22;11614;52.494;6.976;2022-10-16T02:24:05;12.60;99.90
22895;DHT22;11614;52.494;6.976;2022-10-16T02:29:08;12.60;99.90
22895;DHT22;11614;52.494;6.976;2022-10-16T02:31:39;12.60;99.90
22895;DHT22;11614;52.494;6.976;2022-10-16T02:34:06;12.70;99.90
22895;DHT22;11614;52.494;6.976;2022-10-16T02:36:35;12.70;99.90
22895;DHT22;11614;52.494;6.976;2022-10-16T02:39:03;12.80;99.90
22895;DHT22;11614;52.494;6.976;2022-10-16T02:41:30;12.80;99.90
22895;DHT22;11614;52.494;6.976;2022-10-16T02:43:56;12.80;99.90
22895;DHT22;11614;52.494;6.976;2022-10-16T02:46:22;12.80;99.90
22895;DHT22;11614;52.494;6.976;2022-10-16T02:51:14;12.90;99.90
22895;DHT22;11614;52.494;6.976;2022-10-16T02:53:39;13.00;99.90
22895;DHT22;11614;52.494;6.976;2022-10-16T03:00:57;13.10;99.90
22895;DHT22;11614;52.494;6.976;2022-10-16T03:03:23;13.00;99.90
22895;DHT22;11614;52.494;6.976;2022-10-16T03:05:48;12.90;99.90
22895;DHT22;11614;52.494;6.976;2022-10-16T03:08:14;13.00;99.90
22895;DHT22;11614;52.494;6.976;2022-10-16T03:13:06;13.00;99.90
22895;DHT22;11614;52.494;6.976;2022-10-16T03:15:31;13.20;99.90
22895;DHT22;11614;52.494;6.976;2022-10-16T03:17:58;13.10;99.90
22895;DHT22;11614;52.494;6.976;2022-10-16T03:22:50;13.20;99.90
22895;DHT22;11614;52.494;6.976;2022-10-16T03:25:15;14.60;99.90
22895;DHT22;11614;52.494;6.976;2022-10-16T03:27:41;13.30;99.90
22895;DHT22;11614;52.494;6.976;2022-10-16T03:30:07;13.40;99.90
22895;DHT22;11614;52.494;6.976;2022-10-16T03:37:25;13.30;99.90
22895;DHT22;11614;52.494;6.976;2022-10-16T03:39:50;13.40;99.90
22895;DHT22;11614;52.494;6.976;2022-10-16T03:44:43;13.40;99.90
22895;DHT22;11614;52.494;6.976;2022-10-16T03:52:00;13.40;99.90
22895;DHT22;11614;52.494;6.976;2022-10-16T03:54:26;13.30;99.90
22895;DHT22;11614;52.494;6.976;2022-10-16T04:04:09;13.40;99.90
22895;DHT22;11614;52.494;6.976;2022-10-16T04:06:35;13.50;99.90
22895;DHT22;11614;52.494;6.976;2022-10-16T04:09:00;14.80;99.90
22895;DHT22;11614;52.494;6.976;2022-10-16T04:13:52;13.40;99.90
22895;DHT22;11614;52.494;6.976;2022-10-16T04:21:10;13.60;99.90
22895;DHT22;11614;52.494;6.976;2022-10-16T04:23:35;13.50;99.90
22895;DHT22;11614;52.494;6.976;2022-10-16T04:28:28;13.70;99.90
22895;DHT22;11614;52.494;6.976;2022-10-16T04:30:53;13.70;99.90
22895;DHT22;11614;52.494;6.976;2022-10-16T04:33:19;13.80;99.90
22895;DHT22;11614;52.494;6.976;2022-10-16T04:35:45;13.80;99.90
22895;DHT22;11614;52.494;6.976;2022-10-16T04:38:10;13.80;99.90
22895;DHT22;11614;52.494;6.976;2022-10-16T04:43:03;13.90;99.90
22895;DHT22;11614;52.494;6.976;2022-10-16T04:45:29;13.90;99.90
22895;DHT22;11614;52.494;6.976;2022-10-16T04:47:59;13.80;99.90
22895;DHT22;11614;52.494;6.976;2022-10-16T04:50:24;13.80;99.90
22895;DHT22;11614;52.494;6.976;2022-10-16T04:52:50;13.80;99.90
22895;DHT22;11614;52.494;6.976;2022-10-16T04:55:16;13.90;99.90
22895;DHT22;11614;52.494;6.976;2022-10-16T04:57:41;13.70;99.90
22895;DHT22;11614;52.494;6.976;2022-10-16T05:00:08;13.70;99.90
22895;DHT22;11614;52.494;6.976;2022-10-16T05:05:00;13.80;99.90
22895;DHT22;11614;52.494;6.976;2022-10-16T05:12:18;13.70;99.90
22895;DHT22;11614;52.494;6.976;2022-10-16T05:14:44;13.70;99.90
22895;DHT22;11614;52.494;6.976;2022-10-16T05:17:09;13.70;99.90
22895;DHT22;11614;52.494;6.976;2022-10-16T05:19:35;13.70;99.90
22895;DHT22;11614;52.494;6.976;2022-10-16T05:24:27;13.70;99.90
22895;DHT22;11614;52.494;6.976;2022-10-16T05:26:52;15.00;99.90
22895;DHT22;11614;52.494;6.976;2022-10-16T05:29:18;13.60;99.90
22895;DHT22;11614;52.494;6.976;2022-10-16T05:31:44;13.70;99.90
22895;DHT22;11614;52.494;6.976;2022-10-16T05:34:10;14.50;99.90
22895;DHT22;11614;52.494;6.976;2022-10-16T05:36:35;13.60;99.90
22895;DHT22;11614;52.494;6.976;2022-10-16T05:41:27;13.50;99.90
22895;DHT22;11614;52.494;6.976;2022-10-16T05:43:53;13.40;99.90
22895;DHT22;11614;52.494;6.976;2022-10-16T05:46:19;13.50;99.90
22895;DHT22;11614;52.494;6.976;2022-10-16T05:48:45;13.30;99.90
22895;DHT22;11614;52.494;6.976;2022-10-16T05:51:13;13.40;99.90
22895;DHT22;11614;52.494;6.976;2022-10-16T05:53:39;13.30;99.90
22895;DHT22;11614;52.494;6.976;2022-10-16T05:56:07;13.30;99.90
22895;DHT22;11614;52.494;6.976;2022-10-16T05:58:35;13.30;99.90
22895;DHT22;11614;52.494;6.976;2022-10-16T06:01:05;13.30;99.90
22895;DHT22;11614;52.494;6.976;2022-10-16T06:03:32;13.20;99.90
22895;DHT22;11614;52.494;6.976;2022-10-16T06:05:58;13.50;99.90
22895;DHT22;11614;52.494;6.976;2022-10-16T06:08:24;13.20;99.90
22895;DHT22;11614;52.494;6.976;2022-10-16T06:11:01;13.30;99.90
22895;DHT22;11614;52.494;6.976;2022-10-16T06:13:27;13.00;99.90
22895;DHT22;11614;52.494;6.976;2022-10-16T06:15:52;13.20;99.90
22895;DHT22;11614;52.494;6.976;2022-10-16T06:18:18;13.20;99.90
22895;DHT22;11614;52.494;6.976;2022-10-16T06:20:44;12.90;99.90
22895;DHT22;11614;52.494;6.976;2022-10-16T06:23:09;13.20;99.90
22895;DHT22;11614;52.494;6.976;2022-10-16T06:25:35;13.10;99.90
22895;DHT22;11614;52.494;6.976;2022-10-16T06:32:52;13.20;99.90
22895;DHT22;11614;52.494;6.976;2022-10-16T06:35:18;13.40;99.90
22895;DHT22;11614;52.494;6.976;2022-10-16T06:40:09;13.60;99.90
22895;DHT22;11614;52.494;6.976;2022-10-16T06:42:35;13.60;99.90
22895;DHT22;11614;52.494;6.976;2022-10-16T06:47:27;13.60;99.90
22895;DHT22;11614;52.494;6.976;2022-10-16T06:52:19;13.60;99.90
22895;DHT22;11614;52.494;6.976;2022-10-16T06:54:44;13.70;99.90
22895;DHT22;11614;52.494;6.976;2022-10-16T06:59:36;14.30;99.90
22895;DHT22;11614;52.494;6.976;2022-10-16T07:02:01;14.50;99.90
22895;DHT22;11614;52.494;6.976;2022-10-16T07:04:27;15.10;99.90
22895;DHT22;11614;52.494;6.976;2022-10-16T07:09:18;15.20;99.90
22895;DHT22;11614;52.494;6.976;2022-10-16T07:11:44;14.90;99.90
22895;DHT22;11614;52.494;6.976;2022-10-16T07:14:16;14.90;99.90
22895;DHT22;11614;52.494;6.976;2022-10-16T07:16:42;14.60;99.90
22895;DHT22;11614;52.494;6.976;2022-10-16T07:21:34;14.60;99.90
22895;DHT22;11614;52.494;6.976;2022-10-16T07:24:05;14.50;99.90
22895;DHT22;11614;52.494;6.976;2022-10-16T07:26:33;14.60;99.90
22895;DHT22;11614;52.494;6.976;2022-10-16T07:28:59;14.50;99.90
22895;DHT22;11614;52.494;6.976;2022-10-16T07:31:26;14.80;99.90
22895;DHT22;11614;52.494;6.976;2022-10-16T07:33:52;15.00;99.90
22895;DHT22;11614;52.494;6.976;2022-10-16T07:36:19;14.90;99.90
22895;DHT22;11614;52.494;6.976;2022-10-16T07:38:46;14.90;99.90
22895;DHT22;11614;52.494;6.976;2022-10-16T07:41:14;14.80;99.90
22895;DHT22;11614;52.494;6.976;2022-10-16T07:43:40;14.90;99.90
22895;DHT22;11614;52.494;6.976;2022-10-16T07:46:10;14.90;99.90
22895;DHT22;11614;52.494;6.976;2022-10-16T07:48:36;14.90;99.90
22895;DHT22;11614;52.494;6.976;2022-10-16T07:51:05;14.90;99.90
22895;DHT22;11614;52.494;6.976;2022-10-16T07:53:31;17.80;99.90
22895;DHT22;11614;52.494;6.976;2022-10-16T07:55:58;15.10;99.90
22895;DHT22;11614;52.494;6.976;2022-10-16T07:58:24;15.20;99.90
22895;DHT22;11614;52.494;6.976;2022-10-16T08:03:16;17.70;99.90
22895;DHT22;11614;52.494;6.976;2022-10-16T21:56:57;13.60;99.90
22895;DHT22;11614;52.494;6.976;2022-10-16T21:59:23;13.70;99.90
22895;DHT22;11614;52.494;6.976;2022-10-16T22:01:52;13.80;99.90
22895;DHT22;11614;52.494;6.976;2022-10-16T22:04:17;13.70;99.90
22895;DHT22;11614;52.494;6.976;2022-10-16T22:06:43;13.80;99.90
22895;DHT22;11614;52.494;6.976;2022-10-16T22:09:10;13.90;99.90
22895;DHT22;11614;52.494;6.976;2022-10-16T22:11:38;13.90;99.90
22895;DHT22;11614;52.494;6.976;2022-10-16T22:14:07;13.90;99.90
22895;DHT22;11614;52.494;6.976;2022-10-16T22:16:33;13.90;99.90
22895;DHT22;11614;52.494;6.976;2022-10-16T22:23:53;13.90;99.90
22895;DHT22;11614;52.494;6.976;2022-10-16T22:26:20;14.00;99.90
22895;DHT22;11614;52.494;6.976;2022-10-16T22:28:46;14.00;99.90
22895;DHT22;11614;52.494;6.976;2022-10-16T22:31:13;14.10;99.90
22895;DHT22;11614;52.494;6.976;2022-10-16T22:36:08;14.20;99.90
22895;DHT22;11614;52.494;6.976;2022-10-16T22:38:35;14.20;99.90
22895;DHT22;11614;52.494;6.976;2022-10-16T22:41:09;14.10;99.90
22895;DHT22;11614;52.494;6.976;2022-10-16T22:43:37;14.20;99.90
22895;DHT22;11614;52.494;6.976;2022-10-16T22:46:05;14.20;99.90
22895;DHT22;11614;52.494;6.976;2022-10-16T22:48:32;14.20;99.90
22895;DHT22;11614;52.494;6.976;2022-10-16T22:55:50;14.10;99.90
22895;DHT22;11614;52.494;6.976;2022-10-16T22:58:15;14.00;99.90
22895;DHT22;11614;52.494;6.976;2022-10-16T23:00:42;13.90;99.90
22895;DHT22;11614;52.494;6.976;2022-10-16T23:03:09;13.80;99.90
22895;DHT22;11614;52.494;6.976;2022-10-16T23:05:37;15.30;99.90
22895;DHT22;11614;52.494;6.976;2022-10-16T23:08:03;13.70;99.90
22895;DHT22;11614;52.494;6.976;2022-10-16T23:10:29;13.50;99.90
22895;DHT22;11614;52.494;6.976;2022-10-16T23:15:21;13.60;99.90
22895;DHT22;11614;52.494;6.976;2022-10-16T23:17:46;13.60;99.90
22895;DHT22;11614;52.494;6.976;2022-10-16T23:20:12;13.40;99.90
22895;DHT22;11614;52.494;6.976;2022-10-16T23:22:37;13.50;99.90
22895;DHT22;11614;52.494;6.976;2022-10-16T23:25:03;13.60;99.90
22895;DHT22;11614;52.494;6.976;2022-10-16T23:29:56;13.40;99.90
22895;DHT22;11614;52.494;6.976;2022-10-16T23:34:48;13.40;99.90
22895;DHT22;11614;52.494;6.976;2022-10-16T23:37:13;13.40;99.90
22895;DHT22;11614;52.494;6.976;2022-10-16T23:46:58;13.20;99.90
22895;DHT22;11614;52.494;6.976;2022-10-16T23:59:08;13.00;99.90
